Time;durP1;ratioP1;P1;durP2;ratioP2;P2;SDS_P1;SDS_P2;PMS_P1;PMS_P2;Temp;Humidity;BMP_temperature;BMP_pressure;BME280_temperature;BME280_humidity;BME280_pressure;Samples;Min_cycle;Max_cycle;Signal;HPM_P1;HPM_P2
2022/05/04 00:00:03;;;;;;;20.67;7.43;;;20.40;80.10;;;;;;5011909;28;20081;-79
2022/05/04 00:02:29;;;;;;;20.58;7.35;;;20.40;80.10;;;;;;5011016;28;20029;-79
2022/05/04 00:04:56;;;;;;;18.90;6.30;;;20.40;80.00;;;;;;5011453;28;20029;-82
2022/05/04 00:07:22;;;;;;;17.02;6.85;;;20.40;79.90;;;;;;5010377;28;20049;-82
2022/05/04 00:09:49;;;;;;;18.13;6.57;;;20.40;79.90;;;;;;5009533;28;20808;-81
2022/05/04 00:12:15;;;;;;;22.83;7.07;;;20.40;79.90;;;;;;5010151;28;20246;-79
2022/05/04 00:14:41;;;;;;;28.38;7.75;;;20.30;79.80;;;;;;5009201;28;20018;-82
2022/05/04 00:17:08;;;;;;;17.25;6.05;;;20.30;79.90;;;;;;5011631;28;20528;-82
2022/05/04 00:19:34;;;;;;;18.02;6.13;;;20.30;79.90;;;;;;5009948;28;20706;-82
2022/05/04 00:22:01;;;;;;;19.08;5.72;;;20.40;80.10;;;;;;5009884;28;20140;-82
2022/05/04 00:24:27;;;;;;;20.30;6.00;;;20.30;80.40;;;;;;5010336;28;20098;-81
2022/05/04 00:26:54;;;;;;;19.42;4.95;;;20.30;80.50;;;;;;5009404;28;20014;-75
2022/05/04 00:29:20;;;;;;;16.20;4.65;;;20.30;80.60;;;;;;5010021;28;20028;-80
2022/05/04 00:31:47;;;;;;;22.45;4.47;;;20.30;80.80;;;;;;5009200;28;20049;-80
2022/05/04 00:34:53;;;;;;;15.45;4.20;;;20.30;80.90;;;;;;5008523;28;20021;-80
2022/05/04 00:37:59;;;;;;;13.45;4.38;;;20.30;80.90;;;;;;5008353;28;20022;-81
2022/05/04 00:40:25;;;;;;;17.92;4.57;;;20.30;81.00;;;;;;5008220;28;20088;-78
2022/05/04 00:42:52;;;;;;;11.85;3.20;;;20.30;81.10;;;;;;5009179;28;20021;-81
2022/05/04 00:45:18;;;;;;;20.15;5.25;;;20.30;81.20;;;;;;4989444;28;20092;-80
2022/05/04 00:47:45;;;;;;;16.92;4.82;;;20.30;81.10;;;;;;5008970;28;20021;-78
2022/05/04 00:50:12;;;;;;;21.25;4.32;;;20.40;81.10;;;;;;5008831;28;20017;-78
2022/05/04 00:52:42;;;;;;;23.48;4.82;;;20.30;81.20;;;;;;5007810;28;20032;-74
2022/05/04 00:55:10;;;;;;;37.45;6.22;;;20.30;81.30;;;;;;5010622;28;20564;-74
2022/05/04 01:00:24;;;;;;;16.15;4.43;;;20.30;81.60;;;;;;5008948;28;20088;-76
2022/05/04 01:02:51;;;;;;;16.80;4.55;;;20.30;81.70;;;;;;5008768;28;20144;-74
2022/05/04 01:05:18;;;;;;;17.45;4.43;;;20.30;81.70;;;;;;5010407;28;20025;-77
2022/05/04 01:07:46;;;;;;;14.73;4.25;;;20.20;81.70;;;;;;5012023;28;20097;-74
2022/05/04 01:10:14;;;;;;;14.77;4.45;;;20.20;81.70;;;;;;5007444;28;20022;-75
2022/05/04 01:12:52;;;;;;;12.45;4.45;;;20.20;81.80;;;;;;5010009;28;20100;-71
2022/05/04 01:15:20;;;;;;;21.73;4.75;;;20.20;81.70;;;;;;5008210;28;20033;-72
2022/05/04 01:17:50;;;;;;;20.92;4.85;;;20.20;81.70;;;;;;5011752;28;20018;-70
2022/05/04 01:20:18;;;;;;;18.05;4.13;;;20.20;81.90;;;;;;5025965;28;20044;-78
2022/05/04 01:22:45;;;;;;;14.40;4.43;;;20.20;82.00;;;;;;5029138;28;20090;-80
2022/05/04 01:25:13;;;;;;;19.17;5.45;;;20.20;81.90;;;;;;5015893;28;20025;-81
2022/05/04 01:27:39;;;;;;;16.52;4.68;;;20.20;81.80;;;;;;5007419;28;20025;-80
2022/05/04 01:30:07;;;;;;;15.75;3.67;;;20.20;81.70;;;;;;5009215;28;20045;-80
2022/05/04 01:32:34;;;;;;;13.88;5.13;;;20.20;81.70;;;;;;5007770;28;20029;-80
2022/05/04 01:35:00;;;;;;;23.83;4.57;;;20.20;81.60;;;;;;5008735;28;20382;-78
2022/05/04 01:37:28;;;;;;;15.00;4.45;;;20.20;81.70;;;;;;5008900;28;20026;-76
2022/05/04 01:39:55;;;;;;;11.88;2.67;;;20.20;82.00;;;;;;5007919;28;20034;-80
2022/05/04 01:42:24;;;;;;;15.75;3.85;;;20.20;82.00;;;;;;5007815;28;20014;-78
2022/05/04 01:44:51;;;;;;;12.32;3.55;;;20.10;82.00;;;;;;5007739;28;20067;-78
2022/05/04 01:47:17;;;;;;;16.60;4.85;;;20.10;82.00;;;;;;5008191;28;20021;-78
2022/05/04 01:49:44;;;;;;;17.70;3.65;;;20.10;82.10;;;;;;5008224;28;20057;-78
2022/05/04 01:52:10;;;;;;;17.65;4.05;;;20.10;82.20;;;;;;5007725;28;20025;-79
2022/05/04 01:54:37;;;;;;;10.75;3.20;;;20.10;82.10;;;;;;5006991;28;20363;-78
2022/05/04 01:57:03;;;;;;;17.60;3.97;;;20.10;82.20;;;;;;5009776;28;20513;-79
2022/05/04 01:59:30;;;;;;;17.60;4.70;;;20.10;82.10;;;;;;5008953;28;20018;-80
2022/05/04 02:01:57;;;;;;;16.65;4.22;;;20.00;82.00;;;;;;4991051;28;20033;-78
2022/05/04 02:04:23;;;;;;;14.88;4.32;;;20.10;82.10;;;;;;5009036;28;20025;-77
2022/05/04 02:06:51;;;;;;;16.85;3.95;;;20.10;82.10;;;;;;5008014;28;20029;-78
2022/05/04 02:09:17;;;;;;;14.88;3.67;;;20.10;82.20;;;;;;5008576;28;20018;-77
2022/05/04 02:11:44;;;;;;;9.73;3.80;;;20.00;82.00;;;;;;5005987;28;20049;-76
2022/05/04 02:14:11;;;;;;;14.85;3.47;;;20.10;82.10;;;;;;5008894;28;20105;-77
2022/05/04 02:16:37;;;;;;;18.98;4.35;;;20.00;82.00;;;;;;5007635;28;20596;-76
2022/05/04 02:19:04;;;;;;;16.70;3.92;;;20.00;82.00;;;;;;5007988;28;20037;-79
2022/05/04 02:21:30;;;;;;;23.90;5.00;;;20.00;81.90;;;;;;5009442;28;20192;-77
2022/05/04 02:23:56;;;;;;;11.40;3.38;;;20.00;81.90;;;;;;5006822;28;20380;-78
2022/05/04 02:26:23;;;;;;;12.48;3.25;;;20.00;81.90;;;;;;4989124;28;20030;-77
2022/05/04 02:28:49;;;;;;;11.52;3.58;;;20.00;81.80;;;;;;5008036;28;20022;-77
2022/05/04 02:31:16;;;;;;;12.65;3.72;;;20.10;81.90;;;;;;5007622;28;20156;-77
2022/05/04 02:33:44;;;;;;;16.63;4.35;;;20.00;81.80;;;;;;5008209;28;20018;-78
2022/05/04 02:38:56;;;;;;;14.60;3.58;;;20.10;82.00;;;;;;5010363;28;20068;-77
2022/05/04 02:41:22;;;;;;;15.88;5.13;;;20.00;81.90;;;;;;5010673;28;20037;-78
2022/05/04 02:43:49;;;;;;;17.63;4.75;;;20.00;82.00;;;;;;5012949;28;20858;-78
2022/05/04 02:46:20;;;;;;;22.42;8.00;;;20.00;82.00;;;;;;5009922;28;20053;-80
2022/05/04 02:48:47;;;;;;;29.30;14.90;;;20.00;82.10;;;;;;5009012;28;20030;-83
2022/05/04 02:51:14;;;;;;;60.63;14.70;;;20.00;82.10;;;;;;5013609;28;20405;-80
2022/05/04 02:53:41;;;;;;;21.83;6.68;;;20.00;82.10;;;;;;5011468;28;20021;-83
2022/05/04 02:56:09;;;;;;;13.82;5.40;;;20.00;82.40;;;;;;5012415;28;20393;-81
2022/05/04 02:58:36;;;;;;;17.98;5.70;;;20.00;82.40;;;;;;5010916;28;20022;-79
2022/05/04 03:03:54;;;;;;;13.88;4.60;;;19.90;82.30;;;;;;5009709;28;20087;-78
2022/05/04 03:06:20;;;;;;;15.90;4.90;;;19.90;82.30;;;;;;5012887;28;20029;-80
2022/05/04 03:08:47;;;;;;;13.00;5.20;;;19.90;82.30;;;;;;5010608;28;20479;-78
2022/05/04 03:13:59;;;;;;;21.98;4.90;;;19.80;81.90;;;;;;5011767;28;20148;-82
2022/05/04 03:16:26;;;;;;;17.20;5.45;;;19.90;81.80;;;;;;5010020;28;20034;-78
2022/05/04 03:18:53;;;;;;;22.23;4.80;;;19.80;81.70;;;;;;5012463;28;20108;-79
2022/05/04 03:21:19;;;;;;;18.85;5.07;;;19.80;82.00;;;;;;5009928;28;20030;-79
2022/05/04 03:23:47;;;;;;;15.93;4.82;;;19.80;82.30;;;;;;5012217;28;20010;-77
2022/05/04 03:26:13;;;;;;;15.07;4.18;;;19.70;82.00;;;;;;5011099;28;20029;-77
2022/05/04 03:28:40;;;;;;;13.32;4.82;;;19.70;81.80;;;;;;5009976;28;20351;-77
2022/05/04 03:31:06;;;;;;;20.75;5.30;;;19.70;81.60;;;;;;5012644;28;20021;-79
2022/05/04 03:33:33;;;;;;;17.33;5.00;;;19.70;81.50;;;;;;5009067;28;20025;-77
2022/05/04 03:35:59;;;;;;;14.27;4.88;;;19.70;81.40;;;;;;5012721;28;20401;-78
2022/05/04 03:38:26;;;;;;;16.98;5.35;;;19.70;81.30;;;;;;5010461;28;20108;-77
2022/05/04 03:41:32;;;;;;;21.00;4.85;;;19.70;81.20;;;;;;5012271;28;20030;-74
2022/05/04 03:43:59;;;;;;;17.83;4.97;;;19.70;81.20;;;;;;5009502;28;20393;-73
2022/05/04 03:46:28;;;;;;;15.25;4.13;;;19.70;81.20;;;;;;5010252;28;20045;-77
2022/05/04 03:48:58;;;;;;;18.95;4.00;;;19.60;81.10;;;;;;5011215;28;20022;-81
2022/05/04 03:51:25;;;;;;;15.82;4.38;;;19.60;81.20;;;;;;5008901;28;20026;-76
2022/05/04 03:53:53;;;;;;;14.05;3.88;;;19.60;81.10;;;;;;5012421;28;20017;-78
2022/05/04 03:56:21;;;;;;;20.05;5.47;;;19.60;81.20;;;;;;5008650;28;20022;-77
2022/05/04 03:58:48;;;;;;;20.52;4.85;;;19.60;81.30;;;;;;5010281;28;20557;-78
2022/05/04 04:01:14;;;;;;;19.98;7.38;;;19.60;81.30;;;;;;5010882;28;20120;-74
2022/05/04 04:03:41;;;;;;;14.20;4.47;;;19.60;81.30;;;;;;5009843;28;20060;-79
2022/05/04 04:06:25;;;;;;;14.63;5.55;;;19.60;81.30;;;;;;5011365;28;20543;-81
2022/05/04 04:08:53;;;;;;;26.90;4.55;;;19.50;81.30;;;;;;5010211;28;20493;-77
2022/05/04 04:11:20;;;;;;;17.15;5.65;;;19.50;81.30;;;;;;4993533;28;20073;-77
2022/05/04 04:13:46;;;;;;;13.82;4.10;;;19.50;81.10;;;;;;5010120;28;20080;-74
2022/05/04 04:16:13;;;;;;;14.82;4.78;;;19.50;82.00;;;;;;5008924;28;20022;-82
2022/05/04 04:18:40;;;;;;;20.10;4.45;;;19.50;82.40;;;;;;5011218;28;20030;-79
2022/05/04 04:23:53;;;;;;;32.13;15.75;;;19.50;82.50;;;;;;5010481;28;20714;-84
2022/05/04 04:26:20;;;;;;;23.27;11.88;;;19.50;82.50;;;;;;5008739;28;20025;-85
2022/05/04 04:28:47;;;;;;;20.40;7.82;;;19.50;82.60;;;;;;5009671;28;20385;-77
2022/05/04 04:31:14;;;;;;;20.63;8.25;;;19.50;82.70;;;;;;5009810;28;20097;-80
2022/05/04 04:33:40;;;;;;;19.63;6.15;;;19.50;82.60;;;;;;5011846;28;20160;-78
2022/05/04 04:36:08;;;;;;;16.88;5.70;;;19.50;82.40;;;;;;5009497;28;20071;-74
2022/05/04 04:38:34;;;;;;;16.63;6.53;;;19.50;82.20;;;;;;5008456;28;20628;-85
2022/05/04 04:41:28;;;;;;;20.73;5.70;;;19.50;82.10;;;;;;5011517;28;20033;-71
2022/05/04 04:43:55;;;;;;;17.50;4.93;;;19.50;82.00;;;;;;5007498;28;20030;-78
2022/05/04 04:46:21;;;;;;;23.65;6.95;;;19.50;81.80;;;;;;5009008;28;20018;-78
2022/05/04 04:48:48;;;;;;;17.38;4.57;;;19.50;81.70;;;;;;4992659;28;20037;-79
2022/05/04 04:51:14;;;;;;;16.38;5.25;;;19.40;81.60;;;;;;5008578;28;20018;-75
2022/05/04 04:53:41;;;;;;;19.20;5.22;;;19.40;81.50;;;;;;5007164;28;20076;-80
2022/05/04 04:56:07;;;;;;;19.13;5.22;;;19.40;81.40;;;;;;5009667;28;20026;-80
2022/05/04 04:58:34;;;;;;;16.13;5.07;;;19.40;81.30;;;;;;5006553;28;20025;-81
2022/05/04 05:01:00;;;;;;;15.18;5.30;;;19.40;81.20;;;;;;5010128;28;20127;-79
2022/05/04 05:03:27;;;;;;;19.55;5.90;;;19.30;81.10;;;;;;5009166;28;20032;-84
2022/05/04 05:05:54;;;;;;;20.70;6.68;;;19.40;81.10;;;;;;5009338;28;20593;-83
2022/05/04 05:08:20;;;;;;;27.58;8.63;;;19.30;81.00;;;;;;4991576;28;20460;-80
2022/05/04 05:10:47;;;;;;;26.88;9.93;;;19.30;80.80;;;;;;5009777;28;20022;-80
2022/05/04 05:13:13;;;;;;;20.80;7.80;;;19.30;80.80;;;;;;5009647;28;20461;-79
2022/05/04 05:18:39;;;;;;;25.70;9.85;;;19.30;80.40;;;;;;4985095;28;20034;-79
2022/05/04 05:21:06;;;;;;;26.92;9.32;;;19.20;80.10;;;;;;5009974;28;20573;-81
2022/05/04 05:23:32;;;;;;;28.40;8.38;;;19.20;80.30;;;;;;5005285;28;20817;-80
2022/05/04 05:25:59;;;;;;;18.80;9.57;;;19.20;80.60;;;;;;5011200;28;20018;-81
2022/05/04 05:28:25;;;;;;;24.85;8.52;;;19.20;80.70;;;;;;5008802;28;20025;-77
2022/05/04 05:30:52;;;;;;;29.95;9.32;;;19.20;80.70;;;;;;5009710;28;20445;-79
2022/05/04 05:33:18;;;;;;;31.40;9.70;;;19.20;80.80;;;;;;5007947;28;20014;-78
2022/05/04 05:35:45;;;;;;;33.85;8.82;;;19.20;81.00;;;;;;5008688;28;20552;-79
2022/05/04 05:38:11;;;;;;;23.27;8.32;;;19.20;81.40;;;;;;5007905;28;20017;-81
2022/05/04 05:40:38;;;;;;;19.35;7.00;;;19.20;81.80;;;;;;5007522;28;20359;-77
2022/05/04 05:43:05;;;;;;;29.75;8.95;;;19.20;81.90;;;;;;4993086;28;20021;-80
2022/05/04 05:45:31;;;;;;;23.40;7.75;;;19.20;81.90;;;;;;5007160;28;20030;-81
2022/05/04 05:47:58;;;;;;;18.70;6.47;;;19.20;81.80;;;;;;5009515;28;20044;-78
2022/05/04 05:50:24;;;;;;;17.30;6.70;;;19.20;81.80;;;;;;5009108;28;20021;-73
2022/05/04 05:52:51;;;;;;;13.88;5.80;;;19.20;82.40;;;;;;5007758;28;20104;-76
2022/05/04 05:55:17;;;;;;;22.27;6.72;;;19.20;81.80;;;;;;5010039;28;20022;-77
2022/05/04 05:57:44;;;;;;;17.02;6.20;;;19.20;81.70;;;;;;5012195;28;20014;-77
2022/05/04 06:00:11;;;;;;;25.13;6.45;;;19.20;81.70;;;;;;5011190;28;20022;-77
2022/05/04 06:02:38;;;;;;;14.05;5.55;;;19.20;81.80;;;;;;4989635;28;20022;-70
2022/05/04 06:05:05;;;;;;;25.30;7.15;;;19.20;81.80;;;;;;5010349;28;20025;-70
2022/05/04 06:07:31;;;;;;;15.63;5.63;;;19.20;81.80;;;;;;5004667;28;20025;-75
2022/05/04 06:09:58;;;;;;;19.50;6.18;;;19.20;81.90;;;;;;5009466;28;20029;-74
2022/05/04 06:12:24;;;;;;;21.38;6.28;;;19.20;82.10;;;;;;5007730;28;20073;-75
2022/05/04 06:14:51;;;;;;;23.60;5.63;;;19.20;82.20;;;;;;5004947;28;20022;-76
2022/05/04 06:17:17;;;;;;;18.05;5.50;;;19.20;82.30;;;;;;5008814;28;20024;-77
2022/05/04 06:19:44;;;;;;;20.30;5.93;;;19.20;82.30;;;;;;5008295;28;20049;-79
2022/05/04 06:22:11;;;;;;;20.90;6.72;;;19.20;82.40;;;;;;5010218;28;20491;-77
2022/05/04 06:24:37;;;;;;;21.60;6.95;;;19.20;82.40;;;;;;5006364;28;20137;-70
2022/05/04 06:27:04;;;;;;;22.83;6.80;;;19.20;82.50;;;;;;5010077;28;20025;-73
2022/05/04 06:35:05;;;;;;;25.65;6.45;;;19.30;82.70;;;;;;5009342;28;20045;-72
2022/05/04 06:37:31;;;;;;;30.30;8.32;;;19.20;82.70;;;;;;5006743;28;20041;-78
2022/05/04 06:39:58;;;;;;;25.63;7.28;;;19.20;82.90;;;;;;5009096;28;20062;-75
2022/05/04 06:42:25;;;;;;;19.67;7.80;;;19.30;83.00;;;;;;5007068;28;20010;-70
2022/05/04 06:44:51;;;;;;;24.27;7.13;;;19.30;83.00;;;;;;5008430;28;20033;-75
2022/05/04 06:47:18;;;;;;;23.85;7.00;;;19.30;82.90;;;;;;5005560;28;20026;-74
2022/05/04 06:49:44;;;;;;;17.80;6.88;;;19.30;82.80;;;;;;4990456;28;20065;-71
2022/05/04 06:52:10;;;;;;;17.67;6.82;;;19.20;82.70;;;;;;5008747;28;20022;-79
2022/05/04 06:54:37;;;;;;;18.23;6.05;;;19.30;82.80;;;;;;5007547;28;20083;-73
2022/05/04 06:57:04;;;;;;;24.30;7.20;;;19.30;82.90;;;;;;5008271;28;20470;-77
2022/05/04 06:59:30;;;;;;;28.95;7.78;;;19.20;82.90;;;;;;5007951;28;20022;-78
2022/05/04 07:01:57;;;;;;;39.22;7.25;;;19.20;83.00;;;;;;5009058;28;20017;-70
2022/05/04 07:04:23;;;;;;;27.50;6.93;;;19.30;83.20;;;;;;5008485;28;20026;-70
2022/05/04 07:06:50;;;;;;;25.88;6.80;;;19.30;83.60;;;;;;5008874;28;20021;-74
2022/05/04 07:09:16;;;;;;;26.67;8.18;;;19.30;83.60;;;;;;5008438;28;20032;-73
2022/05/04 07:11:43;;;;;;;64.80;8.93;;;19.30;83.60;;;;;;5007586;28;20049;-75
2022/05/04 07:14:09;;;;;;;24.98;7.70;;;19.40;83.70;;;;;;5008859;28;20018;-71
2022/05/04 07:16:36;;;;;;;21.73;7.43;;;19.40;83.90;;;;;;5020358;28;20057;-75
2022/05/04 07:19:03;;;;;;;25.23;8.57;;;19.40;84.10;;;;;;5008276;28;20474;-73
2022/05/04 07:21:30;;;;;;;20.13;8.15;;;19.40;84.30;;;;;;5012089;28;20379;-71
2022/05/04 07:23:56;;;;;;;31.60;10.70;;;19.50;84.40;;;;;;5011607;28;20014;-72
2022/05/04 07:26:22;;;;;;;26.27;10.05;;;19.50;84.50;;;;;;5012230;28;20026;-77
2022/05/04 07:28:49;;;;;;;27.70;8.82;;;19.50;84.50;;;;;;5011540;28;20010;-71
2022/05/04 07:31:15;;;;;;;26.30;8.52;;;19.50;84.50;;;;;;5012083;28;20537;-76
2022/05/04 07:33:42;;;;;;;30.38;8.98;;;19.50;84.60;;;;;;5010714;28;20026;-75
2022/05/04 07:36:09;;;;;;;27.27;9.43;;;19.60;84.70;;;;;;5012793;28;20389;-69
2022/05/04 07:38:36;;;;;;;27.52;9.88;;;19.60;84.80;;;;;;5010437;28;20429;-69
2022/05/04 07:43:47;;;;;;;29.75;9.70;;;19.70;85.00;;;;;;5010544;28;20072;-71
2022/05/04 07:46:14;;;;;;;26.52;9.27;;;19.70;85.00;;;;;;5011220;28;20385;-71
2022/05/04 07:48:41;;;;;;;29.35;9.20;;;19.80;85.20;;;;;;5011237;28;20477;-70
2022/05/04 07:51:07;;;;;;;24.85;10.13;;;19.80;85.30;;;;;;5010489;28;20032;-71
2022/05/04 07:53:35;;;;;;;23.65;8.30;;;19.80;85.40;;;;;;5010722;28;20030;-75
2022/05/04 07:56:01;;;;;;;26.48;8.20;;;19.90;85.40;;;;;;5010694;28;20033;-78
2022/05/04 07:58:27;;;;;;;22.23;7.22;;;19.90;85.50;;;;;;5011667;28;20045;-79
2022/05/04 08:06:23;;;;;;;17.90;7.35;;;20.00;85.50;;;;;;5010181;28;20437;-80
2022/05/04 10:26:39;;;;;;;21.83;7.57;;;21.60;75.60;;;;;;5027225;28;20480;-73
2022/05/04 10:32:30;;;;;;;17.17;6.03;;;22.10;74.10;;;;;;5009814;28;20061;-75
2022/05/04 10:35:20;;;;;;;20.33;6.45;;;22.20;73.20;;;;;;5017453;28;20038;-78
2022/05/04 10:37:58;;;;;;;19.30;6.13;;;22.30;72.60;;;;;;5018811;28;20041;-80
2022/05/04 10:40:34;;;;;;;17.85;6.22;;;22.40;72.20;;;;;;5023268;28;20033;-80
2022/05/04 10:43:38;;;;;;;16.58;6.38;;;22.50;71.80;;;;;;5025647;28;20021;-82
2022/05/04 10:46:07;;;;;;;22.17;6.32;;;22.60;71.30;;;;;;5017823;28;20034;-80
2022/05/04 10:48:34;;;;;;;25.00;7.20;;;22.60;70.90;;;;;;5022584;28;20022;-81
2022/05/04 10:51:03;;;;;;;19.45;5.68;;;22.80;70.80;;;;;;5019834;28;20029;-78
2022/05/04 10:53:33;;;;;;;24.98;7.18;;;22.80;70.60;;;;;;5017489;28;20034;-73
2022/05/04 10:56:08;;;;;;;20.40;5.72;;;22.90;70.30;;;;;;5015623;28;20416;-75
2022/05/04 10:58:38;;;;;;;25.98;5.57;;;23.00;70.00;;;;;;5022343;28;20038;-77
2022/05/04 11:01:14;;;;;;;22.65;6.18;;;23.00;69.80;;;;;;5013935;28;20125;-80
2022/05/04 11:04:14;;;;;;;20.38;6.93;;;23.10;69.50;;;;;;5013799;28;20026;-85
2022/05/04 11:07:08;;;;;;;22.33;7.70;;;23.20;69.20;;;;;;5014363;28;20042;-76
2022/05/04 11:09:43;;;;;;;19.40;6.45;;;23.20;68.90;;;;;;5010614;28;20084;-78
2022/05/04 11:12:12;;;;;;;19.85;6.72;;;23.30;68.40;;;;;;5019304;28;20504;-81
2022/05/04 11:14:39;;;;;;;20.23;5.65;;;23.40;68.30;;;;;;5015838;28;20113;-78
2022/05/04 11:17:14;;;;;;;19.85;6.78;;;23.40;67.70;;;;;;5015413;28;20072;-81
2022/05/04 11:19:45;;;;;;;22.23;6.72;;;23.40;67.30;;;;;;5020689;28;20037;-79
2022/05/04 11:22:12;;;;;;;16.13;6.10;;;23.50;67.20;;;;;;5020994;28;20030;-83
2022/05/04 11:24:39;;;;;;;18.40;6.35;;;23.50;67.30;;;;;;5013335;28;20099;-77
2022/05/04 11:27:06;;;;;;;20.67;7.13;;;23.50;67.30;;;;;;5001711;28;20030;-78
2022/05/04 11:29:33;;;;;;;24.27;7.28;;;23.60;67.50;;;;;;5002981;28;20041;-80
2022/05/04 11:32:04;;;;;;;17.73;6.20;;;23.60;67.40;;;;;;5006453;28;20049;-78
2022/05/04 11:34:36;;;;;;;19.92;6.13;;;23.60;66.80;;;;;;5004728;28;20088;-81
2022/05/04 11:37:08;;;;;;;19.30;5.35;;;23.60;66.30;;;;;;5005070;28;20029;-78
2022/05/04 11:39:36;;;;;;;20.02;6.82;;;23.60;66.30;;;;;;4996328;28;20105;-81
2022/05/04 11:42:05;;;;;;;15.15;6.82;;;23.70;66.30;;;;;;5005570;28;20075;-80
2022/05/04 11:44:31;;;;;;;23.45;7.70;;;23.70;66.20;;;;;;5004892;28;20022;-79
2022/05/04 11:47:00;;;;;;;19.10;7.15;;;23.70;66.50;;;;;;5002566;28;20050;-75
2022/05/04 11:49:28;;;;;;;20.35;6.22;;;23.80;66.50;;;;;;5000593;28;20036;-82
2022/05/04 11:51:56;;;;;;;19.15;5.95;;;23.80;66.40;;;;;;5009457;28;20085;-78
2022/05/04 11:54:23;;;;;;;20.45;6.32;;;23.90;66.40;;;;;;5001066;28;20046;-82
2022/05/04 11:56:50;;;;;;;15.45;5.20;;;24.00;66.10;;;;;;5005453;28;20612;-82
2022/05/04 11:59:16;;;;;;;19.50;7.05;;;24.00;66.10;;;;;;5002527;28;20030;-83
2022/05/04 12:01:44;;;;;;;16.83;6.38;;;24.10;65.80;;;;;;5005619;28;20069;-78
2022/05/04 12:04:12;;;;;;;17.63;6.90;;;24.10;65.50;;;;;;5000931;28;20027;-82
2022/05/04 12:06:39;;;;;;;17.50;6.43;;;24.20;65.30;;;;;;5000079;28;20041;-80
2022/05/04 12:09:06;;;;;;;18.45;8.35;;;24.20;65.00;;;;;;4998807;28;20022;-75
2022/05/04 12:11:33;;;;;;;18.25;6.60;;;24.20;64.80;;;;;;4996850;28;20061;-70
2022/05/04 12:14:00;;;;;;;19.73;6.13;;;24.30;64.30;;;;;;4996963;28;20488;-78
2022/05/04 12:16:28;;;;;;;17.77;5.45;;;24.30;64.10;;;;;;5006496;28;20037;-79
2022/05/04 12:18:55;;;;;;;15.15;6.95;;;24.30;64.00;;;;;;5000089;28;20066;-72
2022/05/04 12:21:22;;;;;;;18.13;6.18;;;24.30;63.60;;;;;;4997744;28;20014;-82
2022/05/04 12:23:54;;;;;;;20.23;7.13;;;24.40;63.60;;;;;;5005633;28;20030;-74
2022/05/04 12:26:21;;;;;;;16.35;5.88;;;24.40;63.50;;;;;;5006659;28;20069;-81
2022/05/04 12:34:22;;;;;;;18.17;6.72;;;24.60;62.50;;;;;;5002590;28;20507;-77
2022/05/04 12:36:50;;;;;;;24.42;6.05;;;24.70;62.60;;;;;;5002920;28;20685;-80
2022/05/04 12:39:16;;;;;;;20.10;5.20;;;24.70;62.40;;;;;;5001379;28;20025;-79
2022/05/04 12:41:46;;;;;;;17.23;6.40;;;24.80;62.00;;;;;;5002069;28;20018;-76
2022/05/04 12:44:15;;;;;;;13.40;4.65;;;24.80;61.90;;;;;;4998038;28;20069;-78
2022/05/04 12:46:49;;;;;;;16.35;5.35;;;24.90;61.60;;;;;;5000941;28;20053;-81
2022/05/04 12:49:20;;;;;;;17.00;5.53;;;24.90;61.40;;;;;;5004067;28;20473;-82
2022/05/04 12:51:47;;;;;;;21.95;7.65;;;25.00;61.30;;;;;;4998663;28;20022;-82
2022/05/04 12:54:16;;;;;;;21.77;5.18;;;25.00;60.90;;;;;;4999364;28;20485;-76
2022/05/04 12:56:46;;;;;;;20.98;6.43;;;25.00;60.70;;;;;;4997383;28;20030;-77
2022/05/04 12:59:16;;;;;;;22.50;6.30;;;25.00;60.60;;;;;;5003060;28;20042;-82
2022/05/04 13:01:44;;;;;;;25.90;5.70;;;25.10;60.40;;;;;;5007108;28;20036;-80
2022/05/04 13:04:12;;;;;;;18.67;5.55;;;25.10;60.20;;;;;;4996401;28;20064;-78
2022/05/04 13:06:39;;;;;;;12.77;4.95;;;25.10;59.90;;;;;;5000617;28;20437;-80
2022/05/04 13:09:05;;;;;;;14.13;3.67;;;25.20;59.60;;;;;;4999509;28;20018;-81
2022/05/04 13:11:34;;;;;;;11.70;4.35;;;25.20;58.80;;;;;;4999818;28;20521;-83
2022/05/04 13:14:40;;;;;;;13.82;3.85;;;25.20;58.30;;;;;;5000585;28;20488;-83
2022/05/04 13:17:26;;;;;;;;;;;25.30;58.10;;;;;;4998993;28;20030;-78
2022/05/04 13:19:53;;;;;;;16.75;3.40;;;25.30;57.80;;;;;;5001467;28;19910;-82
2022/05/04 13:22:19;;;;;;;9.65;3.97;;;25.30;57.30;;;;;;5003407;28;20045;-82
2022/05/04 13:24:46;;;;;;;13.18;4.28;;;25.40;57.40;;;;;;5003721;28;20129;-82
2022/05/04 13:27:12;;;;;;;11.82;3.45;;;25.30;57.40;;;;;;5005886;28;20034;-81
2022/05/04 13:29:41;;;;;;;9.82;3.70;;;25.40;57.50;;;;;;5003889;28;20545;-75
2022/05/04 13:32:08;;;;;;;13.70;3.80;;;25.30;57.40;;;;;;5003271;28;20026;-82
2022/05/04 13:34:35;;;;;;;10.20;3.13;;;25.30;57.40;;;;;;5002571;28;20117;-82
2022/05/04 13:37:02;;;;;;;10.88;3.53;;;25.30;57.50;;;;;;4997980;28;20061;-72
2022/05/04 13:39:28;;;;;;;10.82;3.60;;;25.30;57.60;;;;;;5003627;28;20030;-83
2022/05/04 13:41:55;;;;;;;14.13;3.00;;;25.20;57.70;;;;;;5000328;28;20058;-78
2022/05/04 13:44:21;;;;;;;8.65;3.30;;;25.20;57.90;;;;;;4999934;28;20496;-82
2022/05/04 13:46:48;;;;;;;8.23;3.25;;;25.20;57.90;;;;;;5001283;28;20114;-82
2022/05/04 13:49:14;;;;;;;8.65;2.95;;;25.20;58.60;;;;;;5002250;28;20034;-80
2022/05/04 13:54:26;;;;;;;11.90;2.60;;;25.10;57.50;;;;;;4997665;28;20458;-80
2022/05/04 13:56:52;;;;;;;8.57;2.70;;;25.00;57.20;;;;;;4999229;28;20046;-83
2022/05/04 13:59:19;;;;;;;14.07;2.60;;;25.00;57.60;;;;;;5004327;28;20376;-81
2022/05/04 14:01:46;;;;;;;12.82;3.65;;;24.90;57.90;;;;;;5006490;28;20028;-77
2022/05/04 14:04:13;;;;;;;11.27;3.30;;;24.90;58.30;;;;;;4997551;28;20034;-79
2022/05/04 14:06:40;;;;;;;8.15;2.95;;;24.90;58.80;;;;;;5004967;28;20405;-83
2022/05/04 14:09:10;;;;;;;9.20;2.97;;;24.90;59.00;;;;;;5004009;28;20513;-83
2022/05/04 14:11:36;;;;;;;9.80;4.13;;;24.80;59.00;;;;;;4999692;28;20024;-81
2022/05/04 14:16:48;;;;;;;10.50;3.50;;;24.80;59.00;;;;;;4998957;28;20072;-79
2022/05/04 14:19:14;;;;;;;14.82;4.38;;;24.80;59.20;;;;;;4997538;28;20022;-74
2022/05/04 14:21:41;;;;;;;26.92;4.03;;;24.80;59.40;;;;;;4993978;28;20095;-77
2022/05/04 14:24:16;;;;;;;29.30;4.60;;;24.80;60.10;;;;;;4997575;28;20096;-75
2022/05/04 14:26:43;;;;;;;15.98;4.05;;;24.70;60.80;;;;;;4999121;28;20022;-74
2022/05/04 14:29:09;;;;;;;18.00;4.60;;;24.60;61.30;;;;;;5006031;28;20014;-74
2022/05/04 14:31:38;;;;;;;30.85;5.90;;;24.60;62.10;;;;;;4999522;28;20022;-72
2022/05/04 14:34:04;;;;;;;17.58;4.53;;;24.50;62.50;;;;;;5000082;28;20065;-74
2022/05/04 14:36:31;;;;;;;26.85;6.70;;;24.50;63.20;;;;;;4998936;28;20109;-71
2022/05/04 14:38:57;;;;;;;12.70;4.25;;;24.40;63.40;;;;;;4996676;28;20021;-73
2022/05/04 14:41:26;;;;;;;26.75;5.07;;;24.30;63.50;;;;;;5000332;28;20844;-72
2022/05/04 14:43:52;;;;;;;18.60;5.32;;;24.20;63.70;;;;;;5000931;28;20468;-71
2022/05/04 14:46:19;;;;;;;9.43;3.20;;;24.20;64.00;;;;;;5002121;28;20548;-72
2022/05/04 14:48:45;;;;;;;10.30;4.55;;;24.10;64.30;;;;;;5001446;28;20366;-70
2022/05/04 14:51:12;;;;;;;13.88;3.97;;;24.10;64.50;;;;;;4998442;28;20435;-70
2022/05/04 14:53:38;;;;;;;12.30;3.53;;;24.10;64.80;;;;;;5000130;28;20046;-71
2022/05/04 14:56:06;;;;;;;14.63;3.58;;;24.00;65.60;;;;;;4999409;28;20022;-70
2022/05/04 14:58:32;;;;;;;23.23;3.78;;;23.90;65.10;;;;;;4993823;28;20117;-70
2022/05/04 15:00:59;;;;;;;15.70;4.35;;;23.90;65.30;;;;;;5000238;28;20486;-72
2022/05/04 15:06:10;;;;;;;24.38;15.40;;;23.80;66.10;;;;;;5007347;28;20092;-71
2022/05/04 15:08:37;;;;;;;20.60;9.90;;;23.70;66.50;;;;;;5004588;28;20109;-73
2022/05/04 15:11:04;;;;;;;16.55;8.52;;;23.70;66.90;;;;;;5005485;28;20465;-70
2022/05/04 15:13:30;;;;;;;11.70;5.38;;;23.70;67.20;;;;;;5003683;28;20469;-71
2022/05/04 15:16:12;;;;;;;10.77;5.30;;;23.60;67.40;;;;;;5004553;28;20030;-75
2022/05/04 15:18:41;;;;;;;13.40;4.35;;;23.60;67.90;;;;;;5002944;28;20030;-73
2022/05/04 15:21:14;;;;;;;19.42;5.15;;;23.50;68.30;;;;;;5000428;28;20046;-75
2022/05/04 15:23:40;;;;;;;34.72;9.00;;;23.50;68.70;;;;;;4998722;28;20030;-77
2022/05/04 15:26:07;;;;;;;36.08;10.52;;;23.50;69.20;;;;;;5008223;28;20053;-78
2022/05/04 15:28:37;;;;;;;28.88;10.40;;;23.40;69.90;;;;;;5001934;28;21224;-75
2022/05/04 15:31:04;;;;;;;35.17;22.17;;;23.40;70.60;;;;;;4992323;28;20038;-75
2022/05/04 15:33:36;;;;;;;39.70;17.73;;;23.40;70.80;;;;;;5003057;28;20038;-76
2022/05/04 15:36:03;;;;;;;27.92;14.90;;;23.30;71.20;;;;;;5005892;28;20056;-75
2022/05/04 15:38:30;;;;;;;31.85;12.10;;;23.30;71.30;;;;;;5003310;28;20018;-77
2022/05/04 15:40:57;;;;;;;18.88;11.50;;;23.20;71.40;;;;;;4992292;28;20022;-72
2022/05/04 15:43:24;;;;;;;21.05;13.40;;;23.20;71.70;;;;;;4995978;28;20030;-79
2022/05/04 15:45:51;;;;;;;27.25;17.58;;;23.20;71.80;;;;;;5002853;28;20022;-75